sensor_id;sensor_type;location;lat;lon;timestamp;P1;durP1;ratioP1;P2;durP2;ratioP2
7444;SDS011;3764;48.126;11.594;2024-03-08T00:01:21;14.10;;;9.32;;
7444;SDS011;3764;48.126;11.594;2024-03-08T00:03:48;20.67;;;11.40;;
7444;SDS011;3764;48.126;11.594;2024-03-08T00:06:17;17.23;;;10.15;;
7444;SDS011;3764;48.126;11.594;2024-03-08T00:08:46;17.73;;;10.80;;
7444;SDS011;3764;48.126;11.594;2024-03-08T00:11:13;15.75;;;10.77;;
7444;SDS011;3764;48.126;11.594;2024-03-08T00:13:40;18.90;;;11.18;;
7444;SDS011;3764;48.126;11.594;2024-03-08T00:16:07;17.20;;;10.38;;
7444;SDS011;3764;48.126;11.594;2024-03-08T00:18:35;14.93;;;9.60;;
7444;SDS011;3764;48.126;11.594;2024-03-08T00:21:03;17.25;;;11.43;;
7444;SDS011;3764;48.126;11.594;2024-03-08T00:23:30;18.00;;;11.10;;
7444;SDS011;3764;48.126;11.594;2024-03-08T00:26:00;17.05;;;9.98;;
7444;SDS011;3764;48.126;11.594;2024-03-08T00:28:28;17.67;;;10.77;;
7444;SDS011;3764;48.126;11.594;2024-03-08T00:30:56;16.00;;;10.93;;
7444;SDS011;3764;48.126;11.594;2024-03-08T00:33:23;23.38;;;11.90;;
7444;SDS011;3764;48.126;11.594;2024-03-08T00:35:51;15.23;;;10.20;;
7444;SDS011;3764;48.126;11.594;2024-03-08T00:38:18;15.93;;;10.18;;
7444;SDS011;3764;48.126;11.594;2024-03-08T00:40:45;17.25;;;10.00;;
7444;SDS011;3764;48.126;11.594;2024-03-08T00:43:14;21.90;;;13.02;;
7444;SDS011;3764;48.126;11.594;2024-03-08T00:45:42;18.60;;;11.20;;
7444;SDS011;3764;48.126;11.594;2024-03-08T00:48:09;19.50;;;11.88;;
7444;SDS011;3764;48.126;11.594;2024-03-08T00:50:37;19.98;;;12.70;;
7444;SDS011;3764;48.126;11.594;2024-03-08T00:53:04;17.83;;;11.23;;
7444;SDS011;3764;48.126;11.594;2024-03-08T00:55:32;17.25;;;11.07;;
7444;SDS011;3764;48.126;11.594;2024-03-08T00:58:00;19.38;;;10.38;;
7444;SDS011;3764;48.126;11.594;2024-03-08T01:00:29;20.02;;;11.90;;
7444;SDS011;3764;48.126;11.594;2024-03-08T01:02:56;21.40;;;12.88;;
7444;SDS011;3764;48.126;11.594;2024-03-08T01:05:24;19.27;;;11.27;;
7444;SDS011;3764;48.126;11.594;2024-03-08T01:07:51;20.63;;;11.65;;
7444;SDS011;3764;48.126;11.594;2024-03-08T01:10:18;17.58;;;11.63;;
7444;SDS011;3764;48.126;11.594;2024-03-08T01:12:46;15.80;;;10.32;;
7444;SDS011;3764;48.126;11.594;2024-03-08T01:15:13;20.10;;;11.75;;
7444;SDS011;3764;48.126;11.594;2024-03-08T01:17:42;22.98;;;13.20;;
7444;SDS011;3764;48.126;11.594;2024-03-08T01:20:10;19.65;;;12.10;;
7444;SDS011;3764;48.126;11.594;2024-03-08T01:25:50;19.35;;;11.95;;
7444;SDS011;3764;48.126;11.594;2024-03-08T01:28:22;18.13;;;11.93;;
7444;SDS011;3764;48.126;11.594;2024-03-08T01:30:50;20.25;;;13.05;;
7444;SDS011;3764;48.126;11.594;2024-03-08T01:33:22;19.02;;;12.45;;
7444;SDS011;3764;48.126;11.594;2024-03-08T01:35:50;23.00;;;13.25;;
7444;SDS011;3764;48.126;11.594;2024-03-08T01:38:18;21.45;;;13.18;;
7444;SDS011;3764;48.126;11.594;2024-03-08T01:40:46;17.45;;;11.40;;
7444;SDS011;3764;48.126;11.594;2024-03-08T01:43:19;21.40;;;12.05;;
7444;SDS011;3764;48.126;11.594;2024-03-08T01:45:48;21.65;;;13.00;;
7444;SDS011;3764;48.126;11.594;2024-03-08T01:48:15;18.52;;;11.23;;
7444;SDS011;3764;48.126;11.594;2024-03-08T01:50:45;17.00;;;11.48;;
7444;SDS011;3764;48.126;11.594;2024-03-08T01:53:13;16.77;;;10.60;;
7444;SDS011;3764;48.126;11.594;2024-03-08T01:55:41;17.73;;;12.20;;
7444;SDS011;3764;48.126;11.594;2024-03-08T01:58:11;21.55;;;13.90;;
7444;SDS011;3764;48.126;11.594;2024-03-08T02:00:40;20.27;;;12.15;;
7444;SDS011;3764;48.126;11.594;2024-03-08T02:03:11;20.75;;;14.00;;
7444;SDS011;3764;48.126;11.594;2024-03-08T02:05:38;19.60;;;12.05;;
7444;SDS011;3764;48.126;11.594;2024-03-08T02:08:10;19.58;;;12.68;;
7444;SDS011;3764;48.126;11.594;2024-03-08T02:10:40;18.73;;;12.57;;
7444;SDS011;3764;48.126;11.594;2024-03-08T02:13:07;20.70;;;12.88;;
7444;SDS011;3764;48.126;11.594;2024-03-08T02:15:51;23.70;;;13.80;;
7444;SDS011;3764;48.126;11.594;2024-03-08T02:18:20;19.42;;;13.13;;
7444;SDS011;3764;48.126;11.594;2024-03-08T02:20:50;24.15;;;13.13;;
7444;SDS011;3764;48.126;11.594;2024-03-08T02:23:18;22.92;;;13.18;;
7444;SDS011;3764;48.126;11.594;2024-03-08T02:25:46;20.23;;;11.68;;
7444;SDS011;3764;48.126;11.594;2024-03-08T02:28:13;23.75;;;13.63;;
7444;SDS011;3764;48.126;11.594;2024-03-08T02:30:41;23.02;;;13.10;;
7444;SDS011;3764;48.126;11.594;2024-03-08T02:33:08;21.35;;;13.98;;
7444;SDS011;3764;48.126;11.594;2024-03-08T02:35:36;24.95;;;13.73;;
7444;SDS011;3764;48.126;11.594;2024-03-08T02:38:05;18.63;;;13.35;;
7444;SDS011;3764;48.126;11.594;2024-03-08T02:40:32;27.38;;;14.60;;
7444;SDS011;3764;48.126;11.594;2024-03-08T02:42:59;19.00;;;12.30;;
7444;SDS011;3764;48.126;11.594;2024-03-08T02:45:27;27.02;;;13.90;;
7444;SDS011;3764;48.126;11.594;2024-03-08T02:47:55;24.02;;;14.45;;
7444;SDS011;3764;48.126;11.594;2024-03-08T02:50:22;20.85;;;12.73;;
7444;SDS011;3764;48.126;11.594;2024-03-08T02:52:50;22.50;;;12.55;;
7444;SDS011;3764;48.126;11.594;2024-03-08T02:55:19;27.55;;;14.65;;
7444;SDS011;3764;48.126;11.594;2024-03-08T02:57:46;22.80;;;12.68;;
7444;SDS011;3764;48.126;11.594;2024-03-08T03:00:14;26.65;;;14.18;;
7444;SDS011;3764;48.126;11.594;2024-03-08T03:02:42;24.05;;;14.80;;
7444;SDS011;3764;48.126;11.594;2024-03-08T03:05:09;20.60;;;13.20;;
7444;SDS011;3764;48.126;11.594;2024-03-08T03:07:36;22.90;;;13.15;;
7444;SDS011;3764;48.126;11.594;2024-03-08T03:10:04;21.35;;;13.68;;
7444;SDS011;3764;48.126;11.594;2024-03-08T03:12:35;19.25;;;13.20;;
7444;SDS011;3764;48.126;11.594;2024-03-08T03:15:03;28.95;;;14.38;;
7444;SDS011;3764;48.126;11.594;2024-03-08T03:17:32;20.20;;;14.45;;
7444;SDS011;3764;48.126;11.594;2024-03-08T03:19:59;23.63;;;13.30;;
7444;SDS011;3764;48.126;11.594;2024-03-08T03:22:29;22.30;;;12.93;;
7444;SDS011;3764;48.126;11.594;2024-03-08T03:24:56;25.42;;;15.55;;
7444;SDS011;3764;48.126;11.594;2024-03-08T03:27:28;23.45;;;13.95;;
7444;SDS011;3764;48.126;11.594;2024-03-08T03:29:57;19.60;;;13.38;;
7444;SDS011;3764;48.126;11.594;2024-03-08T03:32:44;19.52;;;13.10;;
7444;SDS011;3764;48.126;11.594;2024-03-08T03:35:12;26.40;;;14.30;;
7444;SDS011;3764;48.126;11.594;2024-03-08T03:37:40;24.90;;;13.45;;
7444;SDS011;3764;48.126;11.594;2024-03-08T03:40:11;28.92;;;15.57;;
7444;SDS011;3764;48.126;11.594;2024-03-08T03:42:39;25.63;;;14.02;;
7444;SDS011;3764;48.126;11.594;2024-03-08T03:45:08;20.45;;;12.98;;
7444;SDS011;3764;48.126;11.594;2024-03-08T03:47:36;24.40;;;14.05;;
7444;SDS011;3764;48.126;11.594;2024-03-08T03:50:05;22.38;;;14.07;;
7444;SDS011;3764;48.126;11.594;2024-03-08T03:52:35;23.38;;;15.70;;
7444;SDS011;3764;48.126;11.594;2024-03-08T03:55:02;18.98;;;12.65;;
7444;SDS011;3764;48.126;11.594;2024-03-08T03:57:30;26.33;;;15.02;;
7444;SDS011;3764;48.126;11.594;2024-03-08T03:59:58;30.40;;;15.82;;
7444;SDS011;3764;48.126;11.594;2024-03-08T04:02:29;27.55;;;15.13;;
7444;SDS011;3764;48.126;11.594;2024-03-08T04:04:56;24.30;;;15.85;;
7444;SDS011;3764;48.126;11.594;2024-03-08T04:07:24;30.08;;;14.80;;
7444;SDS011;3764;48.126;11.594;2024-03-08T04:09:51;22.77;;;14.05;;
7444;SDS011;3764;48.126;11.594;2024-03-08T04:12:18;24.80;;;13.85;;
7444;SDS011;3764;48.126;11.594;2024-03-08T04:14:46;28.38;;;13.85;;
7444;SDS011;3764;48.126;11.594;2024-03-08T04:17:13;24.20;;;13.77;;
7444;SDS011;3764;48.126;11.594;2024-03-08T04:19:42;24.10;;;14.57;;
7444;SDS011;3764;48.126;11.594;2024-03-08T04:22:09;26.38;;;15.20;;
7444;SDS011;3764;48.126;11.594;2024-03-08T04:24:36;23.33;;;13.52;;
7444;SDS011;3764;48.126;11.594;2024-03-08T04:27:05;26.48;;;15.15;;
7444;SDS011;3764;48.126;11.594;2024-03-08T04:29:32;27.98;;;16.00;;
7444;SDS011;3764;48.126;11.594;2024-03-08T04:32:01;26.60;;;15.80;;
7444;SDS011;3764;48.126;11.594;2024-03-08T04:34:29;28.73;;;15.20;;
7444;SDS011;3764;48.126;11.594;2024-03-08T04:36:58;28.58;;;16.85;;
7444;SDS011;3764;48.126;11.594;2024-03-08T04:39:26;23.52;;;14.25;;
7444;SDS011;3764;48.126;11.594;2024-03-08T04:41:53;31.00;;;16.85;;
7444;SDS011;3764;48.126;11.594;2024-03-08T04:44:22;24.60;;;15.43;;
7444;SDS011;3764;48.126;11.594;2024-03-08T04:46:50;28.63;;;16.10;;
7444;SDS011;3764;48.126;11.594;2024-03-08T04:49:18;29.30;;;16.58;;
7444;SDS011;3764;48.126;11.594;2024-03-08T04:51:47;29.35;;;17.17;;
7444;SDS011;3764;48.126;11.594;2024-03-08T04:54:15;25.33;;;15.10;;
7444;SDS011;3764;48.126;11.594;2024-03-08T04:56:43;28.63;;;18.52;;
7444;SDS011;3764;48.126;11.594;2024-03-08T04:59:10;25.38;;;16.65;;
7444;SDS011;3764;48.126;11.594;2024-03-08T05:01:37;30.63;;;16.23;;
7444;SDS011;3764;48.126;11.594;2024-03-08T05:04:05;31.25;;;18.00;;
7444;SDS011;3764;48.126;11.594;2024-03-08T05:06:32;26.10;;;17.42;;
7444;SDS011;3764;48.126;11.594;2024-03-08T05:08:59;27.05;;;16.75;;
7444;SDS011;3764;48.126;11.594;2024-03-08T05:11:33;32.30;;;16.63;;
7444;SDS011;3764;48.126;11.594;2024-03-08T05:14:00;29.30;;;18.05;;
7444;SDS011;3764;48.126;11.594;2024-03-08T05:16:27;26.98;;;17.70;;
7444;SDS011;3764;48.126;11.594;2024-03-08T05:18:55;30.60;;;17.00;;
7444;SDS011;3764;48.126;11.594;2024-03-08T05:21:22;32.13;;;17.77;;
7444;SDS011;3764;48.126;11.594;2024-03-08T05:23:50;27.35;;;16.45;;
7444;SDS011;3764;48.126;11.594;2024-03-08T05:26:17;28.38;;;16.25;;
7444;SDS011;3764;48.126;11.594;2024-03-08T05:28:46;30.45;;;16.98;;
7444;SDS011;3764;48.126;11.594;2024-03-08T05:31:17;29.85;;;17.27;;
7444;SDS011;3764;48.126;11.594;2024-03-08T05:33:46;30.02;;;16.98;;
7444;SDS011;3764;48.126;11.594;2024-03-08T05:36:13;28.73;;;16.05;;
7444;SDS011;3764;48.126;11.594;2024-03-08T05:38:42;32.72;;;17.80;;
7444;SDS011;3764;48.126;11.594;2024-03-08T05:41:09;30.65;;;16.35;;
7444;SDS011;3764;48.126;11.594;2024-03-08T05:43:37;31.02;;;16.80;;
7444;SDS011;3764;48.126;11.594;2024-03-08T05:46:05;22.92;;;14.43;;
7444;SDS011;3764;48.126;11.594;2024-03-08T05:48:33;26.77;;;16.83;;
7444;SDS011;3764;48.126;11.594;2024-03-08T05:51:00;29.27;;;17.30;;
7444;SDS011;3764;48.126;11.594;2024-03-08T05:53:28;27.60;;;15.32;;
7444;SDS011;3764;48.126;11.594;2024-03-08T05:55:57;29.42;;;17.58;;
7444;SDS011;3764;48.126;11.594;2024-03-08T05:58:27;30.13;;;17.27;;
7444;SDS011;3764;48.126;11.594;2024-03-08T06:00:56;30.20;;;17.80;;
7444;SDS011;3764;48.126;11.594;2024-03-08T06:03:25;30.38;;;17.95;;
7444;SDS011;3764;48.126;11.594;2024-03-08T06:05:53;32.80;;;17.45;;
7444;SDS011;3764;48.126;11.594;2024-03-08T06:08:21;31.58;;;18.83;;
7444;SDS011;3764;48.126;11.594;2024-03-08T06:10:54;28.88;;;16.02;;
7444;SDS011;3764;48.126;11.594;2024-03-08T06:13:24;32.72;;;17.65;;
7444;SDS011;3764;48.126;11.594;2024-03-08T06:15:51;32.38;;;17.88;;
7444;SDS011;3764;48.126;11.594;2024-03-08T06:18:19;34.17;;;18.63;;
7444;SDS011;3764;48.126;11.594;2024-03-08T06:20:47;31.45;;;18.02;;
7444;SDS011;3764;48.126;11.594;2024-03-08T06:23:15;28.25;;;16.23;;
7444;SDS011;3764;48.126;11.594;2024-03-08T06:25:43;32.92;;;20.05;;
7444;SDS011;3764;48.126;11.594;2024-03-08T06:28:11;36.33;;;19.75;;
7444;SDS011;3764;48.126;11.594;2024-03-08T06:30:39;31.90;;;17.75;;
7444;SDS011;3764;48.126;11.594;2024-03-08T06:33:08;32.70;;;19.02;;
7444;SDS011;3764;48.126;11.594;2024-03-08T06:35:35;35.72;;;19.77;;
7444;SDS011;3764;48.126;11.594;2024-03-08T06:38:05;29.52;;;16.45;;
7444;SDS011;3764;48.126;11.594;2024-03-08T06:40:32;29.00;;;16.70;;
7444;SDS011;3764;48.126;11.594;2024-03-08T06:43:00;30.08;;;16.65;;
7444;SDS011;3764;48.126;11.594;2024-03-08T06:45:31;36.08;;;17.58;;
7444;SDS011;3764;48.126;11.594;2024-03-08T06:47:58;31.05;;;16.17;;
7444;SDS011;3764;48.126;11.594;2024-03-08T06:50:25;26.50;;;16.10;;
7444;SDS011;3764;48.126;11.594;2024-03-08T06:52:53;34.25;;;17.20;;
7444;SDS011;3764;48.126;11.594;2024-03-08T06:55:21;31.98;;;17.33;;
7444;SDS011;3764;48.126;11.594;2024-03-08T06:57:49;29.92;;;16.48;;
7444;SDS011;3764;48.126;11.594;2024-03-08T07:00:16;30.17;;;15.75;;
7444;SDS011;3764;48.126;11.594;2024-03-08T07:02:46;28.92;;;17.02;;
7444;SDS011;3764;48.126;11.594;2024-03-08T07:05:14;32.80;;;17.85;;
7444;SDS011;3764;48.126;11.594;2024-03-08T07:07:41;26.15;;;15.30;;
7444;SDS011;3764;48.126;11.594;2024-03-08T07:10:12;28.83;;;17.17;;
7444;SDS011;3764;48.126;11.594;2024-03-08T07:12:42;31.08;;;16.98;;
7444;SDS011;3764;48.126;11.594;2024-03-08T07:15:09;30.20;;;16.95;;
7444;SDS011;3764;48.126;11.594;2024-03-08T07:17:39;33.33;;;16.98;;
7444;SDS011;3764;48.126;11.594;2024-03-08T07:20:06;32.67;;;16.35;;
7444;SDS011;3764;48.126;11.594;2024-03-08T07:22:37;33.03;;;16.90;;
7444;SDS011;3764;48.126;11.594;2024-03-08T07:25:05;34.13;;;16.42;;
7444;SDS011;3764;48.126;11.594;2024-03-08T07:27:47;27.83;;;15.75;;
7444;SDS011;3764;48.126;11.594;2024-03-08T07:30:15;35.75;;;15.02;;
7444;SDS011;3764;48.126;11.594;2024-03-08T07:33:00;31.48;;;14.82;;
7444;SDS011;3764;48.126;11.594;2024-03-08T07:35:28;33.78;;;17.33;;
7444;SDS011;3764;48.126;11.594;2024-03-08T07:37:56;28.10;;;16.73;;
7444;SDS011;3764;48.126;11.594;2024-03-08T07:40:25;31.00;;;16.70;;
7444;SDS011;3764;48.126;11.594;2024-03-08T07:42:54;27.40;;;14.65;;
7444;SDS011;3764;48.126;11.594;2024-03-08T07:45:21;30.27;;;16.85;;
7444;SDS011;3764;48.126;11.594;2024-03-08T07:47:49;34.83;;;18.30;;
7444;SDS011;3764;48.126;11.594;2024-03-08T07:50:18;30.38;;;16.42;;
7444;SDS011;3764;48.126;11.594;2024-03-08T07:52:48;30.25;;;15.63;;
7444;SDS011;3764;48.126;11.594;2024-03-08T07:55:15;28.85;;;15.32;;
7444;SDS011;3764;48.126;11.594;2024-03-08T07:57:42;30.58;;;16.77;;
7444;SDS011;3764;48.126;11.594;2024-03-08T08:00:12;27.60;;;15.77;;
7444;SDS011;3764;48.126;11.594;2024-03-08T08:02:43;29.75;;;16.75;;
7444;SDS011;3764;48.126;11.594;2024-03-08T08:05:11;27.65;;;16.25;;
7444;SDS011;3764;48.126;11.594;2024-03-08T08:07:39;30.75;;;17.77;;
7444;SDS011;3764;48.126;11.594;2024-03-08T08:10:11;28.10;;;16.92;;
7444;SDS011;3764;48.126;11.594;2024-03-08T08:12:43;34.53;;;16.58;;
7444;SDS011;3764;48.126;11.594;2024-03-08T08:15:13;26.55;;;15.77;;
7444;SDS011;3764;48.126;11.594;2024-03-08T08:17:41;28.27;;;16.65;;
7444;SDS011;3764;48.126;11.594;2024-03-08T08:20:09;30.83;;;17.10;;
7444;SDS011;3764;48.126;11.594;2024-03-08T08:22:38;32.67;;;18.42;;
7444;SDS011;3764;48.126;11.594;2024-03-08T08:25:06;28.92;;;15.55;;
7444;SDS011;3764;48.126;11.594;2024-03-08T08:27:34;25.58;;;15.65;;
7444;SDS011;3764;48.126;11.594;2024-03-08T08:30:03;26.80;;;15.13;;
7444;SDS011;3764;48.126;11.594;2024-03-08T08:32:34;27.92;;;14.82;;
7444;SDS011;3764;48.126;11.594;2024-03-08T08:35:02;30.40;;;16.67;;
7444;SDS011;3764;48.126;11.594;2024-03-08T08:37:31;27.95;;;16.30;;
7444;SDS011;3764;48.126;11.594;2024-03-08T08:39:59;31.98;;;16.13;;
7444;SDS011;3764;48.126;11.594;2024-03-08T08:42:30;31.50;;;15.00;;
7444;SDS011;3764;48.126;11.594;2024-03-08T08:44:58;33.67;;;18.35;;
7444;SDS011;3764;48.126;11.594;2024-03-08T08:47:33;29.63;;;18.35;;
7444;SDS011;3764;48.126;11.594;2024-03-08T08:50:02;25.35;;;15.80;;
7444;SDS011;3764;48.126;11.594;2024-03-08T08:52:30;28.92;;;16.35;;
7444;SDS011;3764;48.126;11.594;2024-03-08T08:54:57;25.60;;;13.70;;
7444;SDS011;3764;48.126;11.594;2024-03-08T08:57:25;25.08;;;14.80;;
7444;SDS011;3764;48.126;11.594;2024-03-08T08:59:53;26.42;;;15.48;;
7444;SDS011;3764;48.126;11.594;2024-03-08T09:02:20;29.73;;;15.75;;
7444;SDS011;3764;48.126;11.594;2024-03-08T09:04:49;29.13;;;15.95;;
7444;SDS011;3764;48.126;11.594;2024-03-08T09:07:16;24.52;;;14.75;;
7444;SDS011;3764;48.126;11.594;2024-03-08T09:09:44;27.98;;;15.32;;
7444;SDS011;3764;48.126;11.594;2024-03-08T09:12:12;27.67;;;17.50;;
7444;SDS011;3764;48.126;11.594;2024-03-08T09:14:39;25.50;;;16.25;;
7444;SDS011;3764;48.126;11.594;2024-03-08T09:17:06;30.77;;;17.45;;
7444;SDS011;3764;48.126;11.594;2024-03-08T09:19:34;28.13;;;15.20;;
7444;SDS011;3764;48.126;11.594;2024-03-08T09:22:04;28.65;;;13.88;;
7444;SDS011;3764;48.126;11.594;2024-03-08T09:24:31;22.90;;;14.50;;
7444;SDS011;3764;48.126;11.594;2024-03-08T09:26:58;23.67;;;13.32;;
7444;SDS011;3764;48.126;11.594;2024-03-08T09:29:26;30.33;;;15.52;;
7444;SDS011;3764;48.126;11.594;2024-03-08T09:31:53;29.75;;;15.90;;
7444;SDS011;3764;48.126;11.594;2024-03-08T09:34:21;26.77;;;16.42;;
7444;SDS011;3764;48.126;11.594;2024-03-08T09:36:48;26.40;;;15.27;;
7444;SDS011;3764;48.126;11.594;2024-03-08T09:39:18;26.95;;;16.58;;
7444;SDS011;3764;48.126;11.594;2024-03-08T09:41:46;23.55;;;15.45;;
7444;SDS011;3764;48.126;11.594;2024-03-08T09:44:14;28.23;;;16.48;;
7444;SDS011;3764;48.126;11.594;2024-03-08T09:46:42;26.52;;;15.15;;
7444;SDS011;3764;48.126;11.594;2024-03-08T09:49:09;22.55;;;13.50;;
7444;SDS011;3764;48.126;11.594;2024-03-08T09:51:37;30.33;;;15.48;;
7444;SDS011;3764;48.126;11.594;2024-03-08T09:54:06;24.08;;;14.50;;
7444;SDS011;3764;48.126;11.594;2024-03-08T09:56:36;25.48;;;14.02;;
7444;SDS011;3764;48.126;11.594;2024-03-08T09:59:03;28.27;;;16.90;;
7444;SDS011;3764;48.126;11.594;2024-03-08T10:01:48;27.58;;;14.85;;
7444;SDS011;3764;48.126;11.594;2024-03-08T10:04:17;27.15;;;15.77;;
7444;SDS011;3764;48.126;11.594;2024-03-08T10:06:45;26.20;;;14.40;;
7444;SDS011;3764;48.126;11.594;2024-03-08T10:09:12;28.10;;;16.08;;
7444;SDS011;3764;48.126;11.594;2024-03-08T10:11:42;22.92;;;13.90;;
7444;SDS011;3764;48.126;11.594;2024-03-08T10:14:10;28.02;;;14.73;;
7444;SDS011;3764;48.126;11.594;2024-03-08T10:16:38;29.00;;;16.02;;
7444;SDS011;3764;48.126;11.594;2024-03-08T10:19:05;27.83;;;13.73;;
7444;SDS011;3764;48.126;11.594;2024-03-08T10:21:34;24.13;;;14.90;;
7444;SDS011;3764;48.126;11.594;2024-03-08T10:24:02;25.60;;;14.48;;
7444;SDS011;3764;48.126;11.594;2024-03-08T10:26:30;24.02;;;14.15;;
7444;SDS011;3764;48.126;11.594;2024-03-08T10:28:58;21.98;;;13.80;;
7444;SDS011;3764;48.126;11.594;2024-03-08T10:31:26;23.25;;;14.60;;
7444;SDS011;3764;48.126;11.594;2024-03-08T10:33:53;22.15;;;12.73;;
7444;SDS011;3764;48.126;11.594;2024-03-08T10:36:20;26.98;;;13.98;;
7444;SDS011;3764;48.126;11.594;2024-03-08T10:38:50;22.10;;;12.82;;
7444;SDS011;3764;48.126;11.594;2024-03-08T10:41:18;23.13;;;14.38;;
7444;SDS011;3764;48.126;11.594;2024-03-08T10:43:55;21.20;;;13.20;;
7444;SDS011;3764;48.126;11.594;2024-03-08T10:46:41;22.05;;;12.35;;
7444;SDS011;3764;48.126;11.594;2024-03-08T10:49:21;18.27;;;11.43;;
7444;SDS011;3764;48.126;11.594;2024-03-08T10:51:55;17.98;;;11.63;;
7444;SDS011;3764;48.126;11.594;2024-03-08T10:54:25;22.10;;;11.93;;
7444;SDS011;3764;48.126;11.594;2024-03-08T10:56:53;18.20;;;10.98;;
7444;SDS011;3764;48.126;11.594;2024-03-08T10:59:22;17.63;;;11.15;;
7444;SDS011;3764;48.126;11.594;2024-03-08T11:01:52;20.80;;;12.70;;
7444;SDS011;3764;48.126;11.594;2024-03-08T11:04:19;22.25;;;13.00;;
7444;SDS011;3764;48.126;11.594;2024-03-08T11:06:48;19.02;;;11.57;;
7444;SDS011;3764;48.126;11.594;2024-03-08T11:09:29;18.17;;;11.55;;
7444;SDS011;3764;48.126;11.594;2024-03-08T11:14:47;18.65;;;11.32;;
7444;SDS011;3764;48.126;11.594;2024-03-08T11:17:16;17.13;;;10.93;;
7444;SDS011;3764;48.126;11.594;2024-03-08T11:19:47;15.80;;;10.45;;
7444;SDS011;3764;48.126;11.594;2024-03-08T11:22:20;19.27;;;11.32;;
7444;SDS011;3764;48.126;11.594;2024-03-08T11:24:52;16.40;;;11.77;;
7444;SDS011;3764;48.126;11.594;2024-03-08T11:27:20;20.55;;;12.45;;
7444;SDS011;3764;48.126;11.594;2024-03-08T11:30:00;17.95;;;11.48;;
7444;SDS011;3764;48.126;11.594;2024-03-08T11:32:35;19.73;;;11.93;;
7444;SDS011;3764;48.126;11.594;2024-03-08T11:35:05;17.92;;;11.25;;
7444;SDS011;3764;48.126;11.594;2024-03-08T11:37:35;17.48;;;11.80;;
7444;SDS011;3764;48.126;11.594;2024-03-08T11:40:06;19.17;;;12.65;;
7444;SDS011;3764;48.126;11.594;2024-03-08T11:42:44;17.05;;;11.07;;
7444;SDS011;3764;48.126;11.594;2024-03-08T11:45:15;18.00;;;11.98;;
7444;SDS011;3764;48.126;11.594;2024-03-08T11:47:43;21.13;;;12.77;;
7444;SDS011;3764;48.126;11.594;2024-03-08T11:50:11;19.30;;;12.75;;
7444;SDS011;3764;48.126;11.594;2024-03-08T11:52:39;17.85;;;12.68;;
7444;SDS011;3764;48.126;11.594;2024-03-08T11:55:08;18.77;;;13.55;;
7444;SDS011;3764;48.126;11.594;2024-03-08T11:57:37;21.75;;;12.85;;
7444;SDS011;3764;48.126;11.594;2024-03-08T12:00:05;19.23;;;12.90;;
7444;SDS011;3764;48.126;11.594;2024-03-08T12:02:48;22.20;;;13.18;;
7444;SDS011;3764;48.126;11.594;2024-03-08T12:05:28;19.33;;;12.95;;
7444;SDS011;3764;48.126;11.594;2024-03-08T12:07:56;20.95;;;12.70;;
7444;SDS011;3764;48.126;11.594;2024-03-08T12:10:24;16.30;;;12.20;;
7444;SDS011;3764;48.126;11.594;2024-03-08T12:12:52;20.77;;;13.35;;
7444;SDS011;3764;48.126;11.594;2024-03-08T12:15:20;20.80;;;12.85;;
7444;SDS011;3764;48.126;11.594;2024-03-08T12:17:50;23.45;;;12.85;;
7444;SDS011;3764;48.126;11.594;2024-03-08T12:20:20;15.82;;;11.23;;
7444;SDS011;3764;48.126;11.594;2024-03-08T12:22:49;18.80;;;12.43;;
7444;SDS011;3764;48.126;11.594;2024-03-08T12:25:17;22.60;;;13.40;;
7444;SDS011;3764;48.126;11.594;2024-03-08T12:27:45;17.80;;;13.27;;
7444;SDS011;3764;48.126;11.594;2024-03-08T12:30:17;16.60;;;11.75;;
7444;SDS011;3764;48.126;11.594;2024-03-08T12:32:47;18.80;;;10.88;;
7444;SDS011;3764;48.126;11.594;2024-03-08T12:35:18;18.40;;;11.93;;
7444;SDS011;3764;48.126;11.594;2024-03-08T12:37:48;18.60;;;11.48;;
7444;SDS011;3764;48.126;11.594;2024-03-08T12:40:16;19.70;;;13.00;;
7444;SDS011;3764;48.126;11.594;2024-03-08T12:42:44;15.00;;;11.68;;
7444;SDS011;3764;48.126;11.594;2024-03-08T12:45:12;17.20;;;11.75;;
7444;SDS011;3764;48.126;11.594;2024-03-08T12:47:40;17.85;;;12.02;;
7444;SDS011;3764;48.126;11.594;2024-03-08T12:50:09;16.15;;;10.98;;
7444;SDS011;3764;48.126;11.594;2024-03-08T12:52:38;17.83;;;11.65;;
7444;SDS011;3764;48.126;11.594;2024-03-08T12:55:06;20.90;;;12.40;;
7444;SDS011;3764;48.126;11.594;2024-03-08T12:57:34;18.75;;;11.50;;
7444;SDS011;3764;48.126;11.594;2024-03-08T13:00:03;16.55;;;12.55;;
7444;SDS011;3764;48.126;11.594;2024-03-08T13:02:38;16.27;;;11.05;;
7444;SDS011;3764;48.126;11.594;2024-03-08T13:05:07;19.48;;;12.18;;
7444;SDS011;3764;48.126;11.594;2024-03-08T13:07:40;19.70;;;14.43;;
7444;SDS011;3764;48.126;11.594;2024-03-08T13:10:11;19.08;;;12.77;;
7444;SDS011;3764;48.126;11.594;2024-03-08T13:12:41;23.05;;;14.23;;
7444;SDS011;3764;48.126;11.594;2024-03-08T13:15:08;19.80;;;12.98;;
7444;SDS011;3764;48.126;11.594;2024-03-08T13:17:40;14.90;;;11.00;;
7444;SDS011;3764;48.126;11.594;2024-03-08T13:20:10;17.00;;;10.95;;
7444;SDS011;3764;48.126;11.594;2024-03-08T13:22:44;16.08;;;11.43;;
7444;SDS011;3764;48.126;11.594;2024-03-08T13:25:12;16.15;;;10.82;;
7444;SDS011;3764;48.126;11.594;2024-03-08T13:27:40;21.13;;;13.02;;
7444;SDS011;3764;48.126;11.594;2024-03-08T13:30:08;22.40;;;14.43;;
7444;SDS011;3764;48.126;11.594;2024-03-08T13:32:38;20.20;;;11.77;;
7444;SDS011;3764;48.126;11.594;2024-03-08T13:35:08;16.40;;;11.80;;
7444;SDS011;3764;48.126;11.594;2024-03-08T13:37:38;18.30;;;11.70;;
7444;SDS011;3764;48.126;11.594;2024-03-08T13:40:08;20.58;;;13.15;;
7444;SDS011;3764;48.126;11.594;2024-03-08T13:42:39;19.38;;;12.50;;
7444;SDS011;3764;48.126;11.594;2024-03-08T13:45:07;20.40;;;13.02;;
7444;SDS011;3764;48.126;11.594;2024-03-08T13:47:36;17.55;;;11.85;;
7444;SDS011;3764;48.126;11.594;2024-03-08T13:50:05;18.15;;;12.43;;
7444;SDS011;3764;48.126;11.594;2024-03-08T13:52:37;19.35;;;13.23;;
7444;SDS011;3764;48.126;11.594;2024-03-08T13:55:04;18.38;;;13.50;;
7444;SDS011;3764;48.126;11.594;2024-03-08T13:57:34;17.05;;;11.80;;
7444;SDS011;3764;48.126;11.594;2024-03-08T14:00:01;20.52;;;12.38;;
7444;SDS011;3764;48.126;11.594;2024-03-08T14:02:32;17.13;;;11.82;;
7444;SDS011;3764;48.126;11.594;2024-03-08T14:04:59;20.50;;;13.45;;
7444;SDS011;3764;48.126;11.594;2024-03-08T14:07:27;19.33;;;13.05;;
7444;SDS011;3764;48.126;11.594;2024-03-08T14:09:55;20.63;;;13.45;;
7444;SDS011;3764;48.126;11.594;2024-03-08T14:12:22;20.20;;;13.50;;
7444;SDS011;3764;48.126;11.594;2024-03-08T14:14:53;18.23;;;12.98;;
7444;SDS011;3764;48.126;11.594;2024-03-08T14:17:24;18.63;;;13.27;;
7444;SDS011;3764;48.126;11.594;2024-03-08T14:19:52;19.13;;;13.07;;
7444;SDS011;3764;48.126;11.594;2024-03-08T14:22:19;19.73;;;13.48;;
7444;SDS011;3764;48.126;11.594;2024-03-08T14:24:47;22.48;;;14.15;;
7444;SDS011;3764;48.126;11.594;2024-03-08T14:27:15;17.55;;;12.82;;
7444;SDS011;3764;48.126;11.594;2024-03-08T14:29:43;19.02;;;13.10;;
7444;SDS011;3764;48.126;11.594;2024-03-08T14:32:13;18.77;;;13.23;;
7444;SDS011;3764;48.126;11.594;2024-03-08T14:34:40;20.23;;;13.70;;
7444;SDS011;3764;48.126;11.594;2024-03-08T14:37:09;16.33;;;13.18;;
7444;SDS011;3764;48.126;11.594;2024-03-08T14:39:37;17.52;;;13.30;;
7444;SDS011;3764;48.126;11.594;2024-03-08T14:42:04;22.80;;;13.35;;
7444;SDS011;3764;48.126;11.594;2024-03-08T14:44:33;15.77;;;12.75;;
7444;SDS011;3764;48.126;11.594;2024-03-08T14:47:01;19.77;;;13.60;;
7444;SDS011;3764;48.126;11.594;2024-03-08T14:49:32;22.73;;;13.75;;
7444;SDS011;3764;48.126;11.594;2024-03-08T14:52:01;20.85;;;12.95;;